sensor_id;sensor_type;location;lat;lon;timestamp;P1;durP1;ratioP1;P2;durP2;ratioP2
54328;SDS011;40710;51.120;13.136;2023-10-13T00:01:11;10.30;;;10.30;;
54328;SDS011;40710;51.120;13.136;2023-10-13T00:03:36;9.75;;;9.75;;
54328;SDS011;40710;51.120;13.136;2023-10-13T00:06:01;9.70;;;9.70;;
54328;SDS011;40710;51.120;13.136;2023-10-13T00:08:27;9.40;;;9.40;;
54328;SDS011;40710;51.120;13.136;2023-10-13T00:10:53;9.78;;;9.77;;
54328;SDS011;40710;51.120;13.136;2023-10-13T00:13:21;9.36;;;9.36;;
54328;SDS011;40710;51.120;13.136;2023-10-13T00:15:46;9.77;;;9.77;;
54328;SDS011;40710;51.120;13.136;2023-10-13T00:18:30;9.24;;;9.24;;
54328;SDS011;40710;51.120;13.136;2023-10-13T00:20:58;9.72;;;9.70;;
54328;SDS011;40710;51.120;13.136;2023-10-13T00:23:23;9.61;;;9.53;;
54328;SDS011;40710;51.120;13.136;2023-10-13T00:25:51;9.48;;;9.48;;
54328;SDS011;40710;51.120;13.136;2023-10-13T00:28:20;9.00;;;8.99;;
54328;SDS011;40710;51.120;13.136;2023-10-13T00:30:49;9.26;;;9.26;;
54328;SDS011;40710;51.120;13.136;2023-10-13T00:33:24;9.38;;;9.37;;
54328;SDS011;40710;51.120;13.136;2023-10-13T00:35:49;8.72;;;8.72;;
54328;SDS011;40710;51.120;13.136;2023-10-13T00:38:16;8.82;;;8.82;;
54328;SDS011;40710;51.120;13.136;2023-10-13T00:40:43;8.82;;;8.82;;
54328;SDS011;40710;51.120;13.136;2023-10-13T00:43:08;8.19;;;8.17;;
54328;SDS011;40710;51.120;13.136;2023-10-13T00:45:46;7.95;;;7.95;;
54328;SDS011;40710;51.120;13.136;2023-10-13T00:48:31;8.76;;;8.76;;
54328;SDS011;40710;51.120;13.136;2023-10-13T00:50:58;8.71;;;8.70;;
54328;SDS011;40710;51.120;13.136;2023-10-13T00:53:38;8.15;;;8.15;;
54328;SDS011;40710;51.120;13.136;2023-10-13T00:56:04;8.19;;;8.19;;
54328;SDS011;40710;51.120;13.136;2023-10-13T00:58:34;8.40;;;8.40;;
54328;SDS011;40710;51.120;13.136;2023-10-13T01:00:59;7.73;;;7.73;;
54328;SDS011;40710;51.120;13.136;2023-10-13T01:03:46;8.13;;;8.13;;
54328;SDS011;40710;51.120;13.136;2023-10-13T01:06:12;8.17;;;8.17;;
54328;SDS011;40710;51.120;13.136;2023-10-13T01:08:38;8.34;;;8.34;;
54328;SDS011;40710;51.120;13.136;2023-10-13T01:11:02;8.19;;;8.18;;
54328;SDS011;40710;51.120;13.136;2023-10-13T01:13:27;8.52;;;8.51;;
54328;SDS011;40710;51.120;13.136;2023-10-13T01:15:51;8.34;;;8.34;;
54328;SDS011;40710;51.120;13.136;2023-10-13T01:18:16;8.16;;;8.16;;
54328;SDS011;40710;51.120;13.136;2023-10-13T01:20:41;8.40;;;8.40;;
54328;SDS011;40710;51.120;13.136;2023-10-13T01:23:16;8.25;;;8.23;;
54328;SDS011;40710;51.120;13.136;2023-10-13T01:25:44;8.22;;;8.20;;
54328;SDS011;40710;51.120;13.136;2023-10-13T01:28:09;8.08;;;8.08;;
54328;SDS011;40710;51.120;13.136;2023-10-13T01:30:34;7.86;;;7.86;;
54328;SDS011;40710;51.120;13.136;2023-10-13T01:33:02;7.50;;;7.50;;
54328;SDS011;40710;51.120;13.136;2023-10-13T01:35:27;7.62;;;7.62;;
54328;SDS011;40710;51.120;13.136;2023-10-13T01:38:11;7.60;;;7.57;;
54328;SDS011;40710;51.120;13.136;2023-10-13T01:40:36;7.64;;;7.58;;
54328;SDS011;40710;51.120;13.136;2023-10-13T01:43:01;7.29;;;7.24;;
54328;SDS011;40710;51.120;13.136;2023-10-13T01:45:28;7.53;;;7.53;;
54328;SDS011;40710;51.120;13.136;2023-10-13T01:47:53;7.95;;;7.95;;
54328;SDS011;40710;51.120;13.136;2023-10-13T01:50:17;7.65;;;7.65;;
54328;SDS011;40710;51.120;13.136;2023-10-13T01:52:54;8.00;;;8.00;;
54328;SDS011;40710;51.120;13.136;2023-10-13T01:55:30;7.56;;;7.56;;
54328;SDS011;40710;51.120;13.136;2023-10-13T01:57:55;8.17;;;8.16;;
54328;SDS011;40710;51.120;13.136;2023-10-13T02:00:19;8.08;;;8.08;;
54328;SDS011;40710;51.120;13.136;2023-10-13T02:02:45;7.98;;;7.98;;
54328;SDS011;40710;51.120;13.136;2023-10-13T02:05:14;8.08;;;8.08;;
54328;SDS011;40710;51.120;13.136;2023-10-13T02:07:41;7.65;;;7.65;;
54328;SDS011;40710;51.120;13.136;2023-10-13T02:10:09;7.79;;;7.79;;
54328;SDS011;40710;51.120;13.136;2023-10-13T02:12:36;7.97;;;7.97;;
54328;SDS011;40710;51.120;13.136;2023-10-13T02:15:06;8.46;;;8.46;;
54328;SDS011;40710;51.120;13.136;2023-10-13T02:17:31;8.17;;;8.17;;
54328;SDS011;40710;51.120;13.136;2023-10-13T02:20:05;8.34;;;8.34;;
54328;SDS011;40710;51.120;13.136;2023-10-13T02:22:33;8.80;;;8.80;;
54328;SDS011;40710;51.120;13.136;2023-10-13T02:24:58;8.04;;;8.04;;
54328;SDS011;40710;51.120;13.136;2023-10-13T02:27:25;8.40;;;8.40;;
54328;SDS011;40710;51.120;13.136;2023-10-13T02:29:50;8.51;;;8.51;;
54328;SDS011;40710;51.120;13.136;2023-10-13T02:32:22;8.30;;;8.30;;
54328;SDS011;40710;51.120;13.136;2023-10-13T02:34:47;7.96;;;7.96;;
54328;SDS011;40710;51.120;13.136;2023-10-13T02:37:11;7.54;;;7.54;;
54328;SDS011;40710;51.120;13.136;2023-10-13T02:39:37;7.76;;;7.76;;
54328;SDS011;40710;51.120;13.136;2023-10-13T02:42:05;7.73;;;7.73;;
54328;SDS011;40710;51.120;13.136;2023-10-13T02:44:31;7.83;;;7.83;;
54328;SDS011;40710;51.120;13.136;2023-10-13T02:46:57;7.89;;;7.89;;
54328;SDS011;40710;51.120;13.136;2023-10-13T02:49:26;7.72;;;7.72;;
54328;SDS011;40710;51.120;13.136;2023-10-13T02:51:51;7.61;;;7.61;;
54328;SDS011;40710;51.120;13.136;2023-10-13T02:54:17;7.81;;;7.81;;
54328;SDS011;40710;51.120;13.136;2023-10-13T02:56:44;8.02;;;8.02;;
54328;SDS011;40710;51.120;13.136;2023-10-13T02:59:23;7.57;;;7.57;;
54328;SDS011;40710;51.120;13.136;2023-10-13T03:02:04;7.69;;;7.69;;
54328;SDS011;40710;51.120;13.136;2023-10-13T03:04:41;7.64;;;7.64;;
54328;SDS011;40710;51.120;13.136;2023-10-13T03:07:06;7.53;;;7.53;;
54328;SDS011;40710;51.120;13.136;2023-10-13T03:09:30;7.64;;;7.64;;
54328;SDS011;40710;51.120;13.136;2023-10-13T03:11:59;7.31;;;7.31;;
54328;SDS011;40710;51.120;13.136;2023-10-13T03:14:23;7.56;;;7.55;;
54328;SDS011;40710;51.120;13.136;2023-10-13T03:16:52;7.30;;;7.30;;
54328;SDS011;40710;51.120;13.136;2023-10-13T03:19:26;7.38;;;7.38;;
54328;SDS011;40710;51.120;13.136;2023-10-13T03:21:56;7.48;;;7.48;;
54328;SDS011;40710;51.120;13.136;2023-10-13T03:24:30;7.41;;;7.41;;
54328;SDS011;40710;51.120;13.136;2023-10-13T03:26:57;7.64;;;7.63;;
54328;SDS011;40710;51.120;13.136;2023-10-13T03:29:23;7.34;;;7.34;;
54328;SDS011;40710;51.120;13.136;2023-10-13T03:31:48;7.53;;;7.53;;
54328;SDS011;40710;51.120;13.136;2023-10-13T03:34:30;7.32;;;7.32;;
54328;SDS011;40710;51.120;13.136;2023-10-13T03:36:54;7.68;;;7.68;;
54328;SDS011;40710;51.120;13.136;2023-10-13T03:39:22;7.55;;;7.55;;
54328;SDS011;40710;51.120;13.136;2023-10-13T03:41:52;7.48;;;7.47;;
54328;SDS011;40710;51.120;13.136;2023-10-13T03:44:18;7.80;;;7.80;;
54328;SDS011;40710;51.120;13.136;2023-10-13T03:46:42;7.51;;;7.51;;
54328;SDS011;40710;51.120;13.136;2023-10-13T03:49:07;7.23;;;7.23;;
54328;SDS011;40710;51.120;13.136;2023-10-13T03:51:37;8.00;;;8.00;;
54328;SDS011;40710;51.120;13.136;2023-10-13T03:54:03;7.40;;;7.40;;
54328;SDS011;40710;51.120;13.136;2023-10-13T03:56:31;7.70;;;7.65;;
54328;SDS011;40710;51.120;13.136;2023-10-13T03:59:05;7.69;;;7.67;;
54328;SDS011;40710;51.120;13.136;2023-10-13T04:01:34;7.89;;;7.89;;
54328;SDS011;40710;51.120;13.136;2023-10-13T04:04:07;8.17;;;8.17;;
54328;SDS011;40710;51.120;13.136;2023-10-13T04:06:35;8.55;;;8.55;;
54328;SDS011;40710;51.120;13.136;2023-10-13T04:09:16;8.71;;;8.70;;
54328;SDS011;40710;51.120;13.136;2023-10-13T04:11:53;8.79;;;8.76;;
54328;SDS011;40710;51.120;13.136;2023-10-13T04:14:44;8.65;;;8.65;;
54328;SDS011;40710;51.120;13.136;2023-10-13T04:17:27;8.50;;;8.50;;
54328;SDS011;40710;51.120;13.136;2023-10-13T04:19:54;8.39;;;8.39;;
54328;SDS011;40710;51.120;13.136;2023-10-13T04:22:35;8.53;;;8.53;;
54328;SDS011;40710;51.120;13.136;2023-10-13T04:25:22;8.42;;;8.42;;
54328;SDS011;40710;51.120;13.136;2023-10-13T04:27:59;8.21;;;8.21;;
54328;SDS011;40710;51.120;13.136;2023-10-13T04:33:26;8.49;;;8.49;;
54328;SDS011;40710;51.120;13.136;2023-10-13T04:36:03;8.32;;;8.32;;
54328;SDS011;40710;51.120;13.136;2023-10-13T04:38:40;8.77;;;8.70;;
54328;SDS011;40710;51.120;13.136;2023-10-13T04:44:03;8.17;;;8.15;;
54328;SDS011;40710;51.120;13.136;2023-10-13T04:46:46;8.29;;;8.25;;
54328;SDS011;40710;51.120;13.136;2023-10-13T04:49:11;8.38;;;8.38;;
54328;SDS011;40710;51.120;13.136;2023-10-13T04:51:51;8.52;;;8.52;;
54328;SDS011;40710;51.120;13.136;2023-10-13T04:54:22;8.31;;;8.31;;
54328;SDS011;40710;51.120;13.136;2023-10-13T04:56:50;8.43;;;8.43;;
54328;SDS011;40710;51.120;13.136;2023-10-13T04:59:37;8.35;;;8.35;;
54328;SDS011;40710;51.120;13.136;2023-10-13T05:02:22;7.85;;;7.85;;
54328;SDS011;40710;51.120;13.136;2023-10-13T05:07:49;7.35;;;7.35;;
54328;SDS011;40710;51.120;13.136;2023-10-13T05:10:33;7.37;;;7.37;;
54328;SDS011;40710;51.120;13.136;2023-10-13T05:13:19;7.08;;;7.08;;
54328;SDS011;40710;51.120;13.136;2023-10-13T05:16:03;7.37;;;7.37;;
54328;SDS011;40710;51.120;13.136;2023-10-13T05:18:51;7.54;;;7.54;;
54328;SDS011;40710;51.120;13.136;2023-10-13T05:21:34;7.80;;;7.80;;
54328;SDS011;40710;51.120;13.136;2023-10-13T05:24:17;8.44;;;8.43;;
54328;SDS011;40710;51.120;13.136;2023-10-13T05:27:01;7.31;;;7.31;;
54328;SDS011;40710;51.120;13.136;2023-10-13T05:29:45;7.27;;;7.27;;
54328;SDS011;40710;51.120;13.136;2023-10-13T05:32:29;7.37;;;7.37;;
54328;SDS011;40710;51.120;13.136;2023-10-13T05:35:14;7.62;;;7.61;;
54328;SDS011;40710;51.120;13.136;2023-10-13T05:37:58;7.47;;;7.47;;
54328;SDS011;40710;51.120;13.136;2023-10-13T05:40:55;7.25;;;7.25;;
54328;SDS011;40710;51.120;13.136;2023-10-13T05:43:39;7.55;;;7.55;;
54328;SDS011;40710;51.120;13.136;2023-10-13T05:46:22;7.61;;;7.61;;
54328;SDS011;40710;51.120;13.136;2023-10-13T05:48:49;7.62;;;7.62;;
54328;SDS011;40710;51.120;13.136;2023-10-13T05:51:23;10.67;;;10.67;;
54328;SDS011;40710;51.120;13.136;2023-10-13T05:54:07;8.11;;;8.10;;
54328;SDS011;40710;51.120;13.136;2023-10-13T05:56:38;7.60;;;7.59;;
54328;SDS011;40710;51.120;13.136;2023-10-13T05:59:32;8.00;;;8.00;;
54328;SDS011;40710;51.120;13.136;2023-10-13T06:02:16;7.60;;;7.60;;
54328;SDS011;40710;51.120;13.136;2023-10-13T06:05:04;7.98;;;7.98;;
54328;SDS011;40710;51.120;13.136;2023-10-13T06:07:48;7.22;;;7.22;;
54328;SDS011;40710;51.120;13.136;2023-10-13T06:10:31;8.51;;;8.50;;
54328;SDS011;40710;51.120;13.136;2023-10-13T06:13:14;7.51;;;7.47;;
54328;SDS011;40710;51.120;13.136;2023-10-13T06:15:56;7.59;;;7.58;;
54328;SDS011;40710;51.120;13.136;2023-10-13T06:18:40;7.27;;;7.27;;
54328;SDS011;40710;51.120;13.136;2023-10-13T06:21:23;7.26;;;7.26;;
54328;SDS011;40710;51.120;13.136;2023-10-13T06:24:07;7.25;;;7.25;;
54328;SDS011;40710;51.120;13.136;2023-10-13T06:26:50;6.61;;;6.61;;
54328;SDS011;40710;51.120;13.136;2023-10-13T06:29:33;6.77;;;6.77;;
54328;SDS011;40710;51.120;13.136;2023-10-13T06:31:58;6.43;;;6.43;;
54328;SDS011;40710;51.120;13.136;2023-10-13T06:34:22;6.10;;;6.10;;
54328;SDS011;40710;51.120;13.136;2023-10-13T06:37:01;6.42;;;6.42;;
54328;SDS011;40710;51.120;13.136;2023-10-13T06:39:26;6.63;;;6.63;;
54328;SDS011;40710;51.120;13.136;2023-10-13T06:41:59;6.60;;;6.60;;
54328;SDS011;40710;51.120;13.136;2023-10-13T06:44:24;6.78;;;6.78;;
54328;SDS011;40710;51.120;13.136;2023-10-13T06:46:48;6.80;;;6.80;;
54328;SDS011;40710;51.120;13.136;2023-10-13T06:49:14;6.38;;;6.38;;
54328;SDS011;40710;51.120;13.136;2023-10-13T06:51:39;6.49;;;6.49;;
54328;SDS011;40710;51.120;13.136;2023-10-13T06:54:04;6.09;;;6.09;;
54328;SDS011;40710;51.120;13.136;2023-10-13T06:56:34;6.43;;;6.43;;
54328;SDS011;40710;51.120;13.136;2023-10-13T06:59:03;6.86;;;6.86;;
54328;SDS011;40710;51.120;13.136;2023-10-13T07:01:32;6.54;;;6.54;;
54328;SDS011;40710;51.120;13.136;2023-10-13T07:04:04;6.08;;;6.08;;
54328;SDS011;40710;51.120;13.136;2023-10-13T07:06:39;5.63;;;5.63;;
54328;SDS011;40710;51.120;13.136;2023-10-13T07:09:08;5.66;;;5.66;;
54328;SDS011;40710;51.120;13.136;2023-10-13T07:11:39;5.60;;;5.60;;
54328;SDS011;40710;51.120;13.136;2023-10-13T07:14:07;5.68;;;5.68;;
54328;SDS011;40710;51.120;13.136;2023-10-13T07:16:35;5.47;;;5.47;;
54328;SDS011;40710;51.120;13.136;2023-10-13T07:19:01;5.45;;;5.45;;
54328;SDS011;40710;51.120;13.136;2023-10-13T07:21:29;5.33;;;5.33;;
54328;SDS011;40710;51.120;13.136;2023-10-13T07:23:57;5.38;;;5.38;;
54328;SDS011;40710;51.120;13.136;2023-10-13T07:26:32;9.12;;;9.03;;
54328;SDS011;40710;51.120;13.136;2023-10-13T07:28:57;6.09;;;6.03;;
54328;SDS011;40710;51.120;13.136;2023-10-13T07:31:22;4.73;;;4.73;;
54328;SDS011;40710;51.120;13.136;2023-10-13T07:33:51;4.71;;;4.71;;
54328;SDS011;40710;51.120;13.136;2023-10-13T07:36:15;4.70;;;4.70;;
54328;SDS011;40710;51.120;13.136;2023-10-13T07:38:40;4.64;;;4.64;;
54328;SDS011;40710;51.120;13.136;2023-10-13T07:41:06;4.71;;;4.69;;
54328;SDS011;40710;51.120;13.136;2023-10-13T07:43:33;4.54;;;4.54;;
54328;SDS011;40710;51.120;13.136;2023-10-13T07:45:57;4.50;;;4.50;;
54328;SDS011;40710;51.120;13.136;2023-10-13T07:48:31;4.26;;;4.26;;
54328;SDS011;40710;51.120;13.136;2023-10-13T07:50:58;4.13;;;4.13;;
54328;SDS011;40710;51.120;13.136;2023-10-13T07:53:25;4.42;;;4.42;;
54328;SDS011;40710;51.120;13.136;2023-10-13T07:55:52;4.33;;;4.33;;
54328;SDS011;40710;51.120;13.136;2023-10-13T07:58:20;4.24;;;4.24;;
54328;SDS011;40710;51.120;13.136;2023-10-13T08:00:44;4.39;;;4.38;;
54328;SDS011;40710;51.120;13.136;2023-10-13T08:03:09;4.48;;;4.48;;
54328;SDS011;40710;51.120;13.136;2023-10-13T08:05:45;4.40;;;4.40;;
54328;SDS011;40710;51.120;13.136;2023-10-13T08:08:23;4.36;;;4.36;;
54328;SDS011;40710;51.120;13.136;2023-10-13T08:10:49;4.43;;;4.43;;
54328;SDS011;40710;51.120;13.136;2023-10-13T08:13:19;4.46;;;4.46;;
54328;SDS011;40710;51.120;13.136;2023-10-13T08:15:45;4.51;;;4.51;;
54328;SDS011;40710;51.120;13.136;2023-10-13T08:18:13;4.54;;;4.54;;
54328;SDS011;40710;51.120;13.136;2023-10-13T08:20:58;4.55;;;4.55;;
54328;SDS011;40710;51.120;13.136;2023-10-13T08:23:29;4.35;;;4.35;;
54328;SDS011;40710;51.120;13.136;2023-10-13T08:26:12;4.40;;;4.39;;
54328;SDS011;40710;51.120;13.136;2023-10-13T08:28:56;4.40;;;4.40;;
54328;SDS011;40710;51.120;13.136;2023-10-13T08:31:42;4.52;;;4.52;;
54328;SDS011;40710;51.120;13.136;2023-10-13T08:34:06;4.32;;;4.32;;
54328;SDS011;40710;51.120;13.136;2023-10-13T08:36:32;4.24;;;4.24;;
54328;SDS011;40710;51.120;13.136;2023-10-13T08:39:02;4.66;;;4.66;;
54328;SDS011;40710;51.120;13.136;2023-10-13T08:41:46;4.57;;;4.57;;
54328;SDS011;40710;51.120;13.136;2023-10-13T08:44:34;4.24;;;4.24;;
54328;SDS011;40710;51.120;13.136;2023-10-13T08:46:59;4.49;;;4.49;;
54328;SDS011;40710;51.120;13.136;2023-10-13T08:49:30;4.08;;;4.08;;
54328;SDS011;40710;51.120;13.136;2023-10-13T08:52:03;4.39;;;4.39;;
54328;SDS011;40710;51.120;13.136;2023-10-13T08:54:51;4.66;;;4.66;;
54328;SDS011;40710;51.120;13.136;2023-10-13T08:57:36;4.42;;;4.42;;
54328;SDS011;40710;51.120;13.136;2023-10-13T09:00:01;4.61;;;4.61;;
54328;SDS011;40710;51.120;13.136;2023-10-13T09:02:44;4.63;;;4.63;;
54328;SDS011;40710;51.120;13.136;2023-10-13T09:05:31;4.41;;;4.41;;
54328;SDS011;40710;51.120;13.136;2023-10-13T09:08:25;4.85;;;4.85;;
54328;SDS011;40710;51.120;13.136;2023-10-13T09:10:59;4.35;;;4.35;;
54328;SDS011;40710;51.120;13.136;2023-10-13T09:13:36;4.54;;;4.54;;
54328;SDS011;40710;51.120;13.136;2023-10-13T09:16:11;4.60;;;4.60;;
54328;SDS011;40710;51.120;13.136;2023-10-13T09:18:41;4.58;;;4.58;;
54328;SDS011;40710;51.120;13.136;2023-10-13T09:21:12;4.59;;;4.59;;
54328;SDS011;40710;51.120;13.136;2023-10-13T09:24:13;4.56;;;4.56;;
54328;SDS011;40710;51.120;13.136;2023-10-13T09:26:54;4.64;;;4.64;;
54328;SDS011;40710;51.120;13.136;2023-10-13T09:29:19;4.64;;;4.64;;
54328;SDS011;40710;51.120;13.136;2023-10-13T09:31:46;4.71;;;4.71;;
54328;SDS011;40710;51.120;13.136;2023-10-13T09:34:19;4.50;;;4.50;;
54328;SDS011;40710;51.120;13.136;2023-10-13T09:36:45;4.55;;;4.55;;
54328;SDS011;40710;51.120;13.136;2023-10-13T09:39:12;4.56;;;4.56;;
54328;SDS011;40710;51.120;13.136;2023-10-13T09:41:40;5.01;;;5.01;;
54328;SDS011;40710;51.120;13.136;2023-10-13T09:44:04;4.87;;;4.87;;
54328;SDS011;40710;51.120;13.136;2023-10-13T09:46:32;5.08;;;5.08;;
54328;SDS011;40710;51.120;13.136;2023-10-13T09:49:06;4.77;;;4.77;;
54328;SDS011;40710;51.120;13.136;2023-10-13T09:51:46;5.15;;;5.15;;
54328;SDS011;40710;51.120;13.136;2023-10-13T09:54:14;5.00;;;5.00;;
54328;SDS011;40710;51.120;13.136;2023-10-13T09:56:49;5.49;;;5.49;;
54328;SDS011;40710;51.120;13.136;2023-10-13T09:59:24;5.42;;;5.42;;
54328;SDS011;40710;51.120;13.136;2023-10-13T10:02:00;5.12;;;5.12;;
54328;SDS011;40710;51.120;13.136;2023-10-13T10:04:34;5.34;;;5.34;;
54328;SDS011;40710;51.120;13.136;2023-10-13T10:07:09;5.07;;;5.07;;
54328;SDS011;40710;51.120;13.136;2023-10-13T10:09:34;5.03;;;5.03;;
54328;SDS011;40710;51.120;13.136;2023-10-13T10:12:13;5.45;;;5.45;;
54328;SDS011;40710;51.120;13.136;2023-10-13T10:17:26;4.97;;;4.97;;
54328;SDS011;40710;51.120;13.136;2023-10-13T10:19:53;5.04;;;5.04;;
54328;SDS011;40710;51.120;13.136;2023-10-13T10:22:28;4.90;;;4.90;;
54328;SDS011;40710;51.120;13.136;2023-10-13T10:25:01;4.97;;;4.97;;
54328;SDS011;40710;51.120;13.136;2023-10-13T10:27:27;5.07;;;5.07;;
54328;SDS011;40710;51.120;13.136;2023-10-13T10:29:53;4.85;;;4.85;;
54328;SDS011;40710;51.120;13.136;2023-10-13T10:32:18;5.32;;;5.32;;
54328;SDS011;40710;51.120;13.136;2023-10-13T10:34:43;5.62;;;5.62;;
54328;SDS011;40710;51.120;13.136;2023-10-13T10:37:07;5.43;;;5.43;;
54328;SDS011;40710;51.120;13.136;2023-10-13T10:39:34;5.52;;;5.52;;
54328;SDS011;40710;51.120;13.136;2023-10-13T10:42:10;4.79;;;4.79;;
54328;SDS011;40710;51.120;13.136;2023-10-13T10:44:43;4.85;;;4.85;;
54328;SDS011;40710;51.120;13.136;2023-10-13T10:47:11;5.09;;;5.09;;
54328;SDS011;40710;51.120;13.136;2023-10-13T10:49:55;4.82;;;4.82;;
54328;SDS011;40710;51.120;13.136;2023-10-13T10:52:19;5.03;;;5.03;;
54328;SDS011;40710;51.120;13.136;2023-10-13T10:54:45;4.93;;;4.92;;
54328;SDS011;40710;51.120;13.136;2023-10-13T10:57:22;4.98;;;4.97;;
54328;SDS011;40710;51.120;13.136;2023-10-13T10:59:53;4.85;;;4.85;;
54328;SDS011;40710;51.120;13.136;2023-10-13T11:02:33;5.18;;;5.16;;
54328;SDS011;40710;51.120;13.136;2023-10-13T11:04:58;5.15;;;5.14;;
54328;SDS011;40710;51.120;13.136;2023-10-13T11:07:23;5.41;;;5.40;;
54328;SDS011;40710;51.120;13.136;2023-10-13T11:09:49;5.25;;;5.25;;
54328;SDS011;40710;51.120;13.136;2023-10-13T11:12:17;5.47;;;5.47;;
54328;SDS011;40710;51.120;13.136;2023-10-13T11:14:47;5.74;;;5.74;;
54328;SDS011;40710;51.120;13.136;2023-10-13T11:17:18;5.58;;;5.58;;
54328;SDS011;40710;51.120;13.136;2023-10-13T11:19:50;5.68;;;5.62;;
54328;SDS011;40710;51.120;13.136;2023-10-13T11:22:19;5.67;;;5.63;;
54328;SDS011;40710;51.120;13.136;2023-10-13T11:25:00;5.92;;;5.84;;
54328;SDS011;40710;51.120;13.136;2023-10-13T11:27:35;5.48;;;5.41;;
54328;SDS011;40710;51.120;13.136;2023-10-13T11:30:13;5.60;;;5.58;;
54328;SDS011;40710;51.120;13.136;2023-10-13T11:32:44;5.66;;;5.63;;
54328;SDS011;40710;51.120;13.136;2023-10-13T11:35:09;5.77;;;5.77;;
54328;SDS011;40710;51.120;13.136;2023-10-13T11:37:47;5.52;;;5.52;;
54328;SDS011;40710;51.120;13.136;2023-10-13T11:40:20;5.81;;;5.81;;
54328;SDS011;40710;51.120;13.136;2023-10-13T11:43:05;5.93;;;5.92;;
54328;SDS011;40710;51.120;13.136;2023-10-13T11:45:29;5.48;;;5.46;;
54328;SDS011;40710;51.120;13.136;2023-10-13T11:47:55;5.43;;;5.39;;
54328;SDS011;40710;51.120;13.136;2023-10-13T11:50:24;5.79;;;5.72;;
54328;SDS011;40710;51.120;13.136;2023-10-13T11:52:59;5.71;;;5.67;;
54328;SDS011;40710;51.120;13.136;2023-10-13T11:55:24;6.04;;;5.99;;
54328;SDS011;40710;51.120;13.136;2023-10-13T11:57:48;5.70;;;5.65;;
54328;SDS011;40710;51.120;13.136;2023-10-13T12:00:13;5.51;;;5.51;;
54328;SDS011;40710;51.120;13.136;2023-10-13T12:02:51;5.96;;;5.90;;
54328;SDS011;40710;51.120;13.136;2023-10-13T12:05:34;5.56;;;5.53;;
54328;SDS011;40710;51.120;13.136;2023-10-13T12:08:13;5.89;;;5.86;;
54328;SDS011;40710;51.120;13.136;2023-10-13T12:10:46;5.48;;;5.48;;
54328;SDS011;40710;51.120;13.136;2023-10-13T12:13:24;5.88;;;5.87;;
54328;SDS011;40710;51.120;13.136;2023-10-13T12:15:49;5.45;;;5.45;;
54328;SDS011;40710;51.120;13.136;2023-10-13T12:18:15;6.02;;;5.96;;
54328;SDS011;40710;51.120;13.136;2023-10-13T12:20:40;5.69;;;5.62;;
54328;SDS011;40710;51.120;13.136;2023-10-13T12:23:09;5.84;;;5.75;;
54328;SDS011;40710;51.120;13.136;2023-10-13T12:25:39;5.62;;;5.62;;
54328;SDS011;40710;51.120;13.136;2023-10-13T12:28:18;5.45;;;5.43;;
54328;SDS011;40710;51.120;13.136;2023-10-13T12:30:45;6.03;;;6.03;;
54328;SDS011;40710;51.120;13.136;2023-10-13T12:33:13;6.04;;;6.03;;
54328;SDS011;40710;51.120;13.136;2023-10-13T12:35:40;5.80;;;5.79;;
54328;SDS011;40710;51.120;13.136;2023-10-13T12:38:31;5.36;;;5.36;;
54328;SDS011;40710;51.120;13.136;2023-10-13T12:41:06;5.79;;;5.78;;
54328;SDS011;40710;51.120;13.136;2023-10-13T12:43:49;5.64;;;5.63;;
54328;SDS011;40710;51.120;13.136;2023-10-13T12:46:33;5.30;;;5.29;;
54328;SDS011;40710;51.120;13.136;2023-10-13T12:49:16;5.80;;;5.80;;
54328;SDS011;40710;51.120;13.136;2023-10-13T12:52:00;5.37;;;5.37;;
54328;SDS011;40710;51.120;13.136;2023-10-13T12:54:25;5.77;;;5.77;;
54328;SDS011;40710;51.120;13.136;2023-10-13T12:56:59;5.87;;;5.86;;
54328;SDS011;40710;51.120;13.136;2023-10-13T12:59:23;6.62;;;6.62;;
54328;SDS011;40710;51.120;13.136;2023-10-13T13:01:51;5.86;;;5.86;;
54328;SDS011;40710;51.120;13.136;2023-10-13T13:04:15;5.60;;;5.59;;
54328;SDS011;40710;51.120;13.136;2023-10-13T13:06:44;5.75;;;5.75;;
54328;SDS011;40710;51.120;13.136;2023-10-13T13:09:09;5.43;;;5.43;;
54328;SDS011;40710;51.120;13.136;2023-10-13T13:11:33;6.28;;;6.28;;
54328;SDS011;40710;51.120;13.136;2023-10-13T13:14:03;6.15;;;6.15;;
54328;SDS011;40710;51.120;13.136;2023-10-13T13:16:29;5.76;;;5.75;;
54328;SDS011;40710;51.120;13.136;2023-10-13T13:18:54;5.95;;;5.95;;
54328;SDS011;40710;51.120;13.136;2023-10-13T13:21:19;5.49;;;5.49;;
54328;SDS011;40710;51.120;13.136;2023-10-13T13:23:49;5.71;;;5.71;;
54328;SDS011;40710;51.120;13.136;2023-10-13T13:26:14;5.61;;;5.61;;
54328;SDS011;40710;51.120;13.136;2023-10-13T13:28:42;5.60;;;5.60;;
54328;SDS011;40710;51.120;13.136;2023-10-13T13:31:08;5.63;;;5.63;;
54328;SDS011;40710;51.120;13.136;2023-10-13T13:33:33;5.77;;;5.75;;
54328;SDS011;40710;51.120;13.136;2023-10-13T13:36:02;5.52;;;5.52;;
54328;SDS011;40710;51.120;13.136;2023-10-13T13:38:28;5.57;;;5.57;;
54328;SDS011;40710;51.120;13.136;2023-10-13T13:40:56;6.22;;;6.21;;
54328;SDS011;40710;51.120;13.136;2023-10-13T13:43:21;5.62;;;5.62;;
54328;SDS011;40710;51.120;13.136;2023-10-13T13:46:04;5.55;;;5.55;;
54328;SDS011;40710;51.120;13.136;2023-10-13T13:48:33;8.32;;;8.32;;
54328;SDS011;40710;51.120;13.136;2023-10-13T13:50:58;5.83;;;5.83;;
54328;SDS011;40710;51.120;13.136;2023-10-13T13:53:30;6.69;;;6.69;;
54328;SDS011;40710;51.120;13.136;2023-10-13T13:56:02;6.06;;;6.06;;
54328;SDS011;40710;51.120;13.136;2023-10-13T13:58:27;6.13;;;6.13;;
54328;SDS011;40710;51.120;13.136;2023-10-13T14:00:52;5.40;;;5.40;;
54328;SDS011;40710;51.120;13.136;2023-10-13T14:03:16;5.96;;;5.96;;
54328;SDS011;40710;51.120;13.136;2023-10-13T14:05:59;5.69;;;5.69;;
54328;SDS011;40710;51.120;13.136;2023-10-13T14:08:24;6.15;;;6.15;;
54328;SDS011;40710;51.120;13.136;2023-10-13T14:10:49;6.11;;;6.11;;
54328;SDS011;40710;51.120;13.136;2023-10-13T14:13:32;5.98;;;5.98;;
54328;SDS011;40710;51.120;13.136;2023-10-13T14:16:12;6.38;;;6.38;;
54328;SDS011;40710;51.120;13.136;2023-10-13T14:18:47;6.00;;;6.00;;
54328;SDS011;40710;51.120;13.136;2023-10-13T14:21:13;5.85;;;5.85;;
54328;SDS011;40710;51.120;13.136;2023-10-13T14:23:41;5.82;;;5.82;;
54328;SDS011;40710;51.120;13.136;2023-10-13T14:26:05;6.00;;;6.00;;
54328;SDS011;40710;51.120;13.136;2023-10-13T14:28:33;5.91;;;5.90;;
54328;SDS011;40710;51.120;13.136;2023-10-13T14:30:59;5.69;;;5.69;;
54328;SDS011;40710;51.120;13.136;2023-10-13T14:33:23;6.26;;;6.26;;
54328;SDS011;40710;51.120;13.136;2023-10-13T14:35:49;6.12;;;6.12;;
54328;SDS011;40710;51.120;13.136;2023-10-13T14:38:14;5.92;;;5.92;;
54328;SDS011;40710;51.120;13.136;2023-10-13T14:40:38;5.98;;;5.98;;
54328;SDS011;40710;51.120;13.136;2023-10-13T14:43:03;5.60;;;5.60;;
54328;SDS011;40710;51.120;13.136;2023-10-13T14:45:29;5.46;;;5.46;;
54328;SDS011;40710;51.120;13.136;2023-10-13T14:47:54;5.80;;;5.79;;
54328;SDS011;40710;51.120;13.136;2023-10-13T14:50:18;5.56;;;5.56;;
54328;SDS011;40710;51.120;13.136;2023-10-13T14:52:47;5.90;;;5.90;;
54328;SDS011;40710;51.120;13.136;2023-10-13T14:55:12;5.80;;;5.80;;
54328;SDS011;40710;51.120;13.136;2023-10-13T14:57:42;5.99;;;5.99;;
54328;SDS011;40710;51.120;13.136;2023-10-13T15:00:07;5.79;;;5.79;;
54328;SDS011;40710;51.120;13.136;2023-10-13T15:02:37;5.83;;;5.83;;
54328;SDS011;40710;51.120;13.136;2023-10-13T15:05:02;5.80;;;5.80;;
54328;SDS011;40710;51.120;13.136;2023-10-13T15:07:26;6.59;;;6.59;;
54328;SDS011;40710;51.120;13.136;2023-10-13T15:09:52;5.80;;;5.80;;